sensor_id;sensor_type;location;lat;lon;timestamp;P1;durP1;ratioP1;P2;durP2;ratioP2
17925;SDS011;9088;55.674;13.354;2023-08-06T00:01:00;0.40;;;0.40;;
17925;SDS011;9088;55.674;13.354;2023-08-06T00:03:27;0.40;;;0.40;;
17925;SDS011;9088;55.674;13.354;2023-08-06T00:05:54;0.30;;;0.30;;
17925;SDS011;9088;55.674;13.354;2023-08-06T00:08:21;0.30;;;0.30;;
17925;SDS011;9088;55.674;13.354;2023-08-06T00:10:48;0.30;;;0.30;;
17925;SDS011;9088;55.674;13.354;2023-08-06T00:13:16;0.30;;;0.30;;
17925;SDS011;9088;55.674;13.354;2023-08-06T00:15:43;0.40;;;0.40;;
17925;SDS011;9088;55.674;13.354;2023-08-06T00:18:10;0.30;;;0.30;;
17925;SDS011;9088;55.674;13.354;2023-08-06T00:20:38;0.30;;;0.30;;
17925;SDS011;9088;55.674;13.354;2023-08-06T00:23:06;0.40;;;0.40;;
17925;SDS011;9088;55.674;13.354;2023-08-06T00:25:35;0.40;;;0.40;;
17925;SDS011;9088;55.674;13.354;2023-08-06T00:28:03;0.30;;;0.30;;
17925;SDS011;9088;55.674;13.354;2023-08-06T00:30:32;0.40;;;0.40;;
17925;SDS011;9088;55.674;13.354;2023-08-06T00:32:59;0.30;;;0.30;;
17925;SDS011;9088;55.674;13.354;2023-08-06T00:35:26;0.40;;;0.40;;
17925;SDS011;9088;55.674;13.354;2023-08-06T00:37:53;0.37;;;0.37;;
17925;SDS011;9088;55.674;13.354;2023-08-06T00:40:20;0.30;;;0.30;;
17925;SDS011;9088;55.674;13.354;2023-08-06T00:42:48;0.40;;;0.40;;
17925;SDS011;9088;55.674;13.354;2023-08-06T00:45:15;0.33;;;0.33;;
17925;SDS011;9088;55.674;13.354;2023-08-06T00:47:43;0.40;;;0.40;;
17925;SDS011;9088;55.674;13.354;2023-08-06T00:50:10;0.40;;;0.40;;
17925;SDS011;9088;55.674;13.354;2023-08-06T00:52:38;0.30;;;0.30;;
17925;SDS011;9088;55.674;13.354;2023-08-06T00:55:10;0.40;;;0.40;;
17925;SDS011;9088;55.674;13.354;2023-08-06T00:57:37;0.40;;;0.40;;
17925;SDS011;9088;55.674;13.354;2023-08-06T01:00:05;0.40;;;0.40;;
17925;SDS011;9088;55.674;13.354;2023-08-06T01:02:32;0.30;;;0.30;;
17925;SDS011;9088;55.674;13.354;2023-08-06T01:05:01;0.40;;;0.40;;
17925;SDS011;9088;55.674;13.354;2023-08-06T01:07:33;0.40;;;0.40;;
17925;SDS011;9088;55.674;13.354;2023-08-06T01:10:10;0.40;;;0.40;;
17925;SDS011;9088;55.674;13.354;2023-08-06T01:12:41;0.40;;;0.40;;
17925;SDS011;9088;55.674;13.354;2023-08-06T01:15:11;0.40;;;0.40;;
17925;SDS011;9088;55.674;13.354;2023-08-06T01:17:40;0.40;;;0.40;;
17925;SDS011;9088;55.674;13.354;2023-08-06T01:20:11;0.40;;;0.40;;
17925;SDS011;9088;55.674;13.354;2023-08-06T01:22:40;0.40;;;0.40;;
17925;SDS011;9088;55.674;13.354;2023-08-06T01:25:07;0.40;;;0.40;;
17925;SDS011;9088;55.674;13.354;2023-08-06T01:27:37;0.40;;;0.40;;
17925;SDS011;9088;55.674;13.354;2023-08-06T01:30:06;0.40;;;0.40;;
17925;SDS011;9088;55.674;13.354;2023-08-06T01:32:35;0.40;;;0.40;;
17925;SDS011;9088;55.674;13.354;2023-08-06T01:35:03;0.40;;;0.40;;
17925;SDS011;9088;55.674;13.354;2023-08-06T01:37:31;0.40;;;0.40;;
17925;SDS011;9088;55.674;13.354;2023-08-06T01:39:59;0.40;;;0.40;;
17925;SDS011;9088;55.674;13.354;2023-08-06T01:42:26;0.40;;;0.40;;
17925;SDS011;9088;55.674;13.354;2023-08-06T01:44:53;0.40;;;0.40;;
17925;SDS011;9088;55.674;13.354;2023-08-06T01:47:20;0.40;;;0.40;;
17925;SDS011;9088;55.674;13.354;2023-08-06T01:49:47;0.40;;;0.40;;
17925;SDS011;9088;55.674;13.354;2023-08-06T01:52:14;0.40;;;0.40;;
17925;SDS011;9088;55.674;13.354;2023-08-06T01:54:41;0.40;;;0.40;;
17925;SDS011;9088;55.674;13.354;2023-08-06T01:57:09;0.43;;;0.43;;
17925;SDS011;9088;55.674;13.354;2023-08-06T01:59:37;0.40;;;0.40;;
17925;SDS011;9088;55.674;13.354;2023-08-06T02:02:04;0.40;;;0.40;;
17925;SDS011;9088;55.674;13.354;2023-08-06T02:04:31;0.40;;;0.40;;
17925;SDS011;9088;55.674;13.354;2023-08-06T02:06:58;0.40;;;0.40;;
17925;SDS011;9088;55.674;13.354;2023-08-06T02:09:25;0.40;;;0.40;;
17925;SDS011;9088;55.674;13.354;2023-08-06T02:11:52;0.40;;;0.40;;
17925;SDS011;9088;55.674;13.354;2023-08-06T02:14:20;0.40;;;0.40;;
17925;SDS011;9088;55.674;13.354;2023-08-06T02:16:47;0.40;;;0.40;;
17925;SDS011;9088;55.674;13.354;2023-08-06T02:19:15;0.40;;;0.40;;
17925;SDS011;9088;55.674;13.354;2023-08-06T02:21:42;0.40;;;0.40;;
17925;SDS011;9088;55.674;13.354;2023-08-06T02:24:09;0.33;;;0.33;;
17925;SDS011;9088;55.674;13.354;2023-08-06T02:26:36;0.40;;;0.40;;
17925;SDS011;9088;55.674;13.354;2023-08-06T02:29:03;0.30;;;0.30;;
17925;SDS011;9088;55.674;13.354;2023-08-06T02:31:31;0.30;;;0.30;;
17925;SDS011;9088;55.674;13.354;2023-08-06T02:33:58;0.40;;;0.40;;
17925;SDS011;9088;55.674;13.354;2023-08-06T02:36:25;0.40;;;0.40;;
17925;SDS011;9088;55.674;13.354;2023-08-06T02:38:54;0.30;;;0.30;;
17925;SDS011;9088;55.674;13.354;2023-08-06T02:41:21;0.40;;;0.40;;
17925;SDS011;9088;55.674;13.354;2023-08-06T02:43:48;0.30;;;0.30;;
17925;SDS011;9088;55.674;13.354;2023-08-06T02:46:15;0.40;;;0.40;;
17925;SDS011;9088;55.674;13.354;2023-08-06T02:48:46;0.40;;;0.40;;
17925;SDS011;9088;55.674;13.354;2023-08-06T02:51:16;0.40;;;0.40;;
17925;SDS011;9088;55.674;13.354;2023-08-06T02:53:47;0.40;;;0.40;;
17925;SDS011;9088;55.674;13.354;2023-08-06T02:56:14;0.40;;;0.40;;
17925;SDS011;9088;55.674;13.354;2023-08-06T02:58:41;0.40;;;0.40;;
17925;SDS011;9088;55.674;13.354;2023-08-06T03:01:08;0.40;;;0.40;;
17925;SDS011;9088;55.674;13.354;2023-08-06T03:03:35;0.40;;;0.40;;
17925;SDS011;9088;55.674;13.354;2023-08-06T03:06:04;0.40;;;0.40;;
17925;SDS011;9088;55.674;13.354;2023-08-06T03:08:31;0.40;;;0.40;;
17925;SDS011;9088;55.674;13.354;2023-08-06T03:10:58;0.40;;;0.40;;
17925;SDS011;9088;55.674;13.354;2023-08-06T03:13:25;0.40;;;0.40;;
17925;SDS011;9088;55.674;13.354;2023-08-06T03:15:53;0.40;;;0.40;;
17925;SDS011;9088;55.674;13.354;2023-08-06T03:18:20;0.40;;;0.40;;
17925;SDS011;9088;55.674;13.354;2023-08-06T03:20:47;0.40;;;0.40;;
17925;SDS011;9088;55.674;13.354;2023-08-06T03:23:15;0.40;;;0.40;;
17925;SDS011;9088;55.674;13.354;2023-08-06T03:25:42;0.40;;;0.40;;
17925;SDS011;9088;55.674;13.354;2023-08-06T03:28:09;0.50;;;0.50;;
17925;SDS011;9088;55.674;13.354;2023-08-06T03:30:36;0.40;;;0.40;;
17925;SDS011;9088;55.674;13.354;2023-08-06T03:33:03;0.50;;;0.50;;
17925;SDS011;9088;55.674;13.354;2023-08-06T03:35:30;0.40;;;0.40;;
17925;SDS011;9088;55.674;13.354;2023-08-06T03:37:57;0.40;;;0.40;;
17925;SDS011;9088;55.674;13.354;2023-08-06T03:40:26;0.40;;;0.40;;
17925;SDS011;9088;55.674;13.354;2023-08-06T03:42:53;0.43;;;0.43;;
17925;SDS011;9088;55.674;13.354;2023-08-06T03:45:20;0.50;;;0.50;;
17925;SDS011;9088;55.674;13.354;2023-08-06T03:47:47;0.60;;;0.60;;
17925;SDS011;9088;55.674;13.354;2023-08-06T03:50:14;0.60;;;0.60;;
17925;SDS011;9088;55.674;13.354;2023-08-06T03:52:41;0.60;;;0.60;;
17925;SDS011;9088;55.674;13.354;2023-08-06T03:55:08;0.60;;;0.60;;
17925;SDS011;9088;55.674;13.354;2023-08-06T03:57:36;0.60;;;0.60;;
17925;SDS011;9088;55.674;13.354;2023-08-06T04:00:04;0.60;;;0.60;;
17925;SDS011;9088;55.674;13.354;2023-08-06T04:02:31;0.60;;;0.60;;
17925;SDS011;9088;55.674;13.354;2023-08-06T04:04:58;0.60;;;0.60;;
17925;SDS011;9088;55.674;13.354;2023-08-06T04:07:25;0.50;;;0.50;;
17925;SDS011;9088;55.674;13.354;2023-08-06T04:09:57;0.60;;;0.60;;
17925;SDS011;9088;55.674;13.354;2023-08-06T04:12:24;0.60;;;0.60;;
17925;SDS011;9088;55.674;13.354;2023-08-06T04:14:57;0.60;;;0.60;;
17925;SDS011;9088;55.674;13.354;2023-08-06T04:17:25;0.60;;;0.60;;
17925;SDS011;9088;55.674;13.354;2023-08-06T04:19:52;0.60;;;0.60;;
17925;SDS011;9088;55.674;13.354;2023-08-06T04:22:20;0.53;;;0.53;;
17925;SDS011;9088;55.674;13.354;2023-08-06T04:24:47;0.60;;;0.60;;
17925;SDS011;9088;55.674;13.354;2023-08-06T04:27:15;0.57;;;0.57;;
17925;SDS011;9088;55.674;13.354;2023-08-06T04:29:42;0.60;;;0.60;;
17925;SDS011;9088;55.674;13.354;2023-08-06T04:32:10;0.60;;;0.60;;
17925;SDS011;9088;55.674;13.354;2023-08-06T04:34:37;0.50;;;0.50;;
17925;SDS011;9088;55.674;13.354;2023-08-06T04:37:04;0.50;;;0.50;;
17925;SDS011;9088;55.674;13.354;2023-08-06T04:39:31;0.50;;;0.50;;
17925;SDS011;9088;55.674;13.354;2023-08-06T04:41:58;0.50;;;0.50;;
17925;SDS011;9088;55.674;13.354;2023-08-06T04:44:25;0.60;;;0.60;;
17925;SDS011;9088;55.674;13.354;2023-08-06T04:46:52;0.60;;;0.60;;
17925;SDS011;9088;55.674;13.354;2023-08-06T04:49:24;0.60;;;0.60;;
17925;SDS011;9088;55.674;13.354;2023-08-06T04:51:51;0.50;;;0.50;;
17925;SDS011;9088;55.674;13.354;2023-08-06T04:54:18;0.53;;;0.53;;
17925;SDS011;9088;55.674;13.354;2023-08-06T04:56:45;0.50;;;0.50;;
17925;SDS011;9088;55.674;13.354;2023-08-06T04:59:12;0.60;;;0.60;;
17925;SDS011;9088;55.674;13.354;2023-08-06T05:01:39;0.60;;;0.60;;
17925;SDS011;9088;55.674;13.354;2023-08-06T05:04:06;0.50;;;0.50;;
17925;SDS011;9088;55.674;13.354;2023-08-06T05:06:35;0.40;;;0.40;;
17925;SDS011;9088;55.674;13.354;2023-08-06T05:09:03;0.40;;;0.40;;
17925;SDS011;9088;55.674;13.354;2023-08-06T05:11:31;0.40;;;0.40;;
17925;SDS011;9088;55.674;13.354;2023-08-06T05:13:58;0.50;;;0.50;;
17925;SDS011;9088;55.674;13.354;2023-08-06T05:16:25;0.40;;;0.40;;
17925;SDS011;9088;55.674;13.354;2023-08-06T05:18:52;0.40;;;0.40;;
17925;SDS011;9088;55.674;13.354;2023-08-06T05:21:19;0.40;;;0.40;;
17925;SDS011;9088;55.674;13.354;2023-08-06T05:23:47;0.40;;;0.40;;
17925;SDS011;9088;55.674;13.354;2023-08-06T05:26:14;0.40;;;0.40;;
17925;SDS011;9088;55.674;13.354;2023-08-06T05:28:43;0.40;;;0.40;;
17925;SDS011;9088;55.674;13.354;2023-08-06T05:31:10;0.40;;;0.40;;
17925;SDS011;9088;55.674;13.354;2023-08-06T05:33:37;0.40;;;0.40;;
17925;SDS011;9088;55.674;13.354;2023-08-06T05:36:04;0.40;;;0.40;;
17925;SDS011;9088;55.674;13.354;2023-08-06T05:38:31;0.40;;;0.40;;
17925;SDS011;9088;55.674;13.354;2023-08-06T05:41:00;0.43;;;0.43;;
17925;SDS011;9088;55.674;13.354;2023-08-06T05:43:27;0.40;;;0.40;;
17925;SDS011;9088;55.674;13.354;2023-08-06T05:45:55;0.40;;;0.40;;
17925;SDS011;9088;55.674;13.354;2023-08-06T05:48:22;0.40;;;0.40;;
17925;SDS011;9088;55.674;13.354;2023-08-06T05:50:50;0.40;;;0.40;;
17925;SDS011;9088;55.674;13.354;2023-08-06T05:53:17;0.40;;;0.40;;
17925;SDS011;9088;55.674;13.354;2023-08-06T05:55:44;0.30;;;0.30;;
17925;SDS011;9088;55.674;13.354;2023-08-06T05:58:13;0.40;;;0.40;;
17925;SDS011;9088;55.674;13.354;2023-08-06T06:00:40;0.40;;;0.40;;
17925;SDS011;9088;55.674;13.354;2023-08-06T06:03:07;0.50;;;0.50;;
17925;SDS011;9088;55.674;13.354;2023-08-06T06:05:34;0.93;;;0.93;;
17925;SDS011;9088;55.674;13.354;2023-08-06T06:08:01;1.00;;;1.00;;
17925;SDS011;9088;55.674;13.354;2023-08-06T06:10:28;1.20;;;1.20;;
17925;SDS011;9088;55.674;13.354;2023-08-06T06:12:55;0.60;;;0.60;;
17925;SDS011;9088;55.674;13.354;2023-08-06T06:15:24;0.60;;;0.60;;
17925;SDS011;9088;55.674;13.354;2023-08-06T06:17:51;0.50;;;0.50;;
17925;SDS011;9088;55.674;13.354;2023-08-06T06:20:18;0.90;;;0.90;;
17925;SDS011;9088;55.674;13.354;2023-08-06T06:22:45;0.50;;;0.50;;
17925;SDS011;9088;55.674;13.354;2023-08-06T06:25:12;0.50;;;0.50;;
17925;SDS011;9088;55.674;13.354;2023-08-06T06:27:39;0.50;;;0.50;;
17925;SDS011;9088;55.674;13.354;2023-08-06T06:30:07;0.40;;;0.40;;
17925;SDS011;9088;55.674;13.354;2023-08-06T06:32:35;0.67;;;0.67;;
17925;SDS011;9088;55.674;13.354;2023-08-06T06:35:02;0.90;;;0.90;;
17925;SDS011;9088;55.674;13.354;2023-08-06T06:37:29;1.10;;;1.10;;
17925;SDS011;9088;55.674;13.354;2023-08-06T06:40:00;1.20;;;1.20;;
17925;SDS011;9088;55.674;13.354;2023-08-06T06:42:30;1.10;;;1.10;;
17925;SDS011;9088;55.674;13.354;2023-08-06T06:44:57;1.10;;;1.10;;
17925;SDS011;9088;55.674;13.354;2023-08-06T06:47:24;1.10;;;1.10;;
17925;SDS011;9088;55.674;13.354;2023-08-06T06:49:52;1.10;;;1.10;;
17925;SDS011;9088;55.674;13.354;2023-08-06T06:52:19;1.10;;;1.10;;
17925;SDS011;9088;55.674;13.354;2023-08-06T06:54:46;1.00;;;1.00;;
17925;SDS011;9088;55.674;13.354;2023-08-06T06:57:13;1.10;;;1.10;;
17925;SDS011;9088;55.674;13.354;2023-08-06T06:59:40;1.10;;;1.10;;
17925;SDS011;9088;55.674;13.354;2023-08-06T07:02:07;1.03;;;1.03;;
17925;SDS011;9088;55.674;13.354;2023-08-06T07:04:34;1.10;;;1.10;;
17925;SDS011;9088;55.674;13.354;2023-08-06T07:07:03;0.83;;;0.83;;
17925;SDS011;9088;55.674;13.354;2023-08-06T07:09:30;0.90;;;0.90;;
17925;SDS011;9088;55.674;13.354;2023-08-06T07:11:57;1.00;;;1.00;;
17925;SDS011;9088;55.674;13.354;2023-08-06T07:14:25;1.03;;;1.03;;
17925;SDS011;9088;55.674;13.354;2023-08-06T07:16:53;1.00;;;1.00;;
17925;SDS011;9088;55.674;13.354;2023-08-06T07:19:20;1.00;;;1.00;;
17925;SDS011;9088;55.674;13.354;2023-08-06T07:21:47;0.90;;;0.90;;
17925;SDS011;9088;55.674;13.354;2023-08-06T07:24:16;1.10;;;1.10;;
17925;SDS011;9088;55.674;13.354;2023-08-06T07:26:43;1.10;;;1.10;;
17925;SDS011;9088;55.674;13.354;2023-08-06T07:29:10;1.10;;;1.10;;
17925;SDS011;9088;55.674;13.354;2023-08-06T07:31:37;1.10;;;1.10;;
17925;SDS011;9088;55.674;13.354;2023-08-06T07:34:07;0.90;;;0.90;;
17925;SDS011;9088;55.674;13.354;2023-08-06T07:36:37;0.93;;;0.93;;
17925;SDS011;9088;55.674;13.354;2023-08-06T07:39:04;0.80;;;0.80;;
17925;SDS011;9088;55.674;13.354;2023-08-06T07:41:33;0.90;;;0.90;;
17925;SDS011;9088;55.674;13.354;2023-08-06T07:44:01;1.00;;;1.00;;
17925;SDS011;9088;55.674;13.354;2023-08-06T07:46:28;0.90;;;0.90;;
17925;SDS011;9088;55.674;13.354;2023-08-06T07:48:55;1.20;;;1.20;;
17925;SDS011;9088;55.674;13.354;2023-08-06T07:51:22;1.10;;;1.10;;
17925;SDS011;9088;55.674;13.354;2023-08-06T07:53:49;1.10;;;1.10;;
17925;SDS011;9088;55.674;13.354;2023-08-06T07:56:16;1.00;;;1.00;;
17925;SDS011;9088;55.674;13.354;2023-08-06T07:58:45;1.13;;;1.13;;
17925;SDS011;9088;55.674;13.354;2023-08-06T08:01:12;1.10;;;1.10;;
17925;SDS011;9088;55.674;13.354;2023-08-06T08:03:39;1.00;;;1.00;;
17925;SDS011;9088;55.674;13.354;2023-08-06T08:06:09;1.10;;;1.10;;
17925;SDS011;9088;55.674;13.354;2023-08-06T08:08:43;1.17;;;1.17;;
17925;SDS011;9088;55.674;13.354;2023-08-06T08:11:10;1.10;;;1.10;;
17925;SDS011;9088;55.674;13.354;2023-08-06T08:13:37;1.00;;;1.00;;
17925;SDS011;9088;55.674;13.354;2023-08-06T08:16:05;1.10;;;1.10;;
17925;SDS011;9088;55.674;13.354;2023-08-06T08:18:33;1.17;;;1.17;;
17925;SDS011;9088;55.674;13.354;2023-08-06T08:21:00;1.20;;;1.20;;
17925;SDS011;9088;55.674;13.354;2023-08-06T08:23:27;1.20;;;1.20;;
17925;SDS011;9088;55.674;13.354;2023-08-06T08:25:56;1.20;;;1.20;;
17925;SDS011;9088;55.674;13.354;2023-08-06T08:28:23;1.20;;;1.20;;
17925;SDS011;9088;55.674;13.354;2023-08-06T08:30:50;1.10;;;1.10;;
17925;SDS011;9088;55.674;13.354;2023-08-06T08:33:18;1.00;;;1.00;;
17925;SDS011;9088;55.674;13.354;2023-08-06T08:35:45;1.10;;;1.10;;
17925;SDS011;9088;55.674;13.354;2023-08-06T08:38:13;0.30;;;0.30;;
17925;SDS011;9088;55.674;13.354;2023-08-06T08:40:42;1.40;;;1.40;;
17925;SDS011;9088;55.674;13.354;2023-08-06T08:43:12;1.40;;;1.40;;
17925;SDS011;9088;55.674;13.354;2023-08-06T08:45:39;1.47;;;1.47;;
17925;SDS011;9088;55.674;13.354;2023-08-06T08:48:06;1.60;;;1.60;;
17925;SDS011;9088;55.674;13.354;2023-08-06T08:50:35;1.50;;;1.50;;
17925;SDS011;9088;55.674;13.354;2023-08-06T08:53:02;1.40;;;1.40;;
17925;SDS011;9088;55.674;13.354;2023-08-06T08:55:29;1.30;;;1.30;;
17925;SDS011;9088;55.674;13.354;2023-08-06T08:57:56;1.40;;;1.40;;
17925;SDS011;9088;55.674;13.354;2023-08-06T09:00:23;1.30;;;1.30;;
17925;SDS011;9088;55.674;13.354;2023-08-06T09:02:50;1.30;;;1.30;;
17925;SDS011;9088;55.674;13.354;2023-08-06T09:05:18;1.30;;;1.30;;
17925;SDS011;9088;55.674;13.354;2023-08-06T09:07:48;1.40;;;1.40;;
17925;SDS011;9088;55.674;13.354;2023-08-06T09:10:16;1.50;;;1.50;;
17925;SDS011;9088;55.674;13.354;2023-08-06T09:12:44;1.20;;;1.20;;
17925;SDS011;9088;55.674;13.354;2023-08-06T09:15:11;1.37;;;1.37;;
17925;SDS011;9088;55.674;13.354;2023-08-06T09:17:38;1.07;;;1.07;;
17925;SDS011;9088;55.674;13.354;2023-08-06T09:20:09;1.27;;;1.27;;
17925;SDS011;9088;55.674;13.354;2023-08-06T09:22:36;1.37;;;1.37;;
17925;SDS011;9088;55.674;13.354;2023-08-06T09:25:05;1.40;;;1.40;;
17925;SDS011;9088;55.674;13.354;2023-08-06T09:27:35;1.30;;;1.30;;
17925;SDS011;9088;55.674;13.354;2023-08-06T09:30:02;1.30;;;1.30;;
17925;SDS011;9088;55.674;13.354;2023-08-06T09:32:34;1.20;;;1.20;;
17925;SDS011;9088;55.674;13.354;2023-08-06T09:35:14;1.20;;;1.20;;
17925;SDS011;9088;55.674;13.354;2023-08-06T09:37:42;1.30;;;1.30;;
17925;SDS011;9088;55.674;13.354;2023-08-06T09:42:53;1.30;;;1.30;;
17925;SDS011;9088;55.674;13.354;2023-08-06T09:45:20;1.20;;;1.20;;
17925;SDS011;9088;55.674;13.354;2023-08-06T09:47:47;1.20;;;1.20;;
17925;SDS011;9088;55.674;13.354;2023-08-06T09:50:15;1.23;;;1.23;;
17925;SDS011;9088;55.674;13.354;2023-08-06T09:52:43;1.20;;;1.20;;
17925;SDS011;9088;55.674;13.354;2023-08-06T09:55:10;1.03;;;1.03;;
17925;SDS011;9088;55.674;13.354;2023-08-06T09:57:38;1.30;;;1.30;;
17925;SDS011;9088;55.674;13.354;2023-08-06T10:00:08;1.20;;;1.20;;
17925;SDS011;9088;55.674;13.354;2023-08-06T10:02:36;1.10;;;1.10;;
17925;SDS011;9088;55.674;13.354;2023-08-06T10:05:04;1.20;;;1.20;;
17925;SDS011;9088;55.674;13.354;2023-08-06T10:07:31;1.00;;;1.00;;
17925;SDS011;9088;55.674;13.354;2023-08-06T10:09:59;1.20;;;1.20;;
17925;SDS011;9088;55.674;13.354;2023-08-06T10:12:26;1.30;;;1.30;;
17925;SDS011;9088;55.674;13.354;2023-08-06T10:14:55;1.30;;;1.30;;
17925;SDS011;9088;55.674;13.354;2023-08-06T10:17:27;1.20;;;1.20;;
17925;SDS011;9088;55.674;13.354;2023-08-06T10:19:55;1.30;;;1.30;;
17925;SDS011;9088;55.674;13.354;2023-08-06T10:22:22;1.30;;;1.30;;
17925;SDS011;9088;55.674;13.354;2023-08-06T10:24:49;1.20;;;1.20;;
17925;SDS011;9088;55.674;13.354;2023-08-06T10:27:21;1.20;;;1.20;;
17925;SDS011;9088;55.674;13.354;2023-08-06T10:29:48;1.13;;;1.13;;
17925;SDS011;9088;55.674;13.354;2023-08-06T10:32:15;1.37;;;1.37;;
17925;SDS011;9088;55.674;13.354;2023-08-06T10:34:58;1.40;;;1.40;;
17925;SDS011;9088;55.674;13.354;2023-08-06T10:37:34;1.23;;;1.23;;
17925;SDS011;9088;55.674;13.354;2023-08-06T10:40:02;1.30;;;1.30;;
17925;SDS011;9088;55.674;13.354;2023-08-06T10:42:29;1.20;;;1.20;;
17925;SDS011;9088;55.674;13.354;2023-08-06T10:45:10;1.20;;;1.20;;
17925;SDS011;9088;55.674;13.354;2023-08-06T10:47:38;1.30;;;1.30;;
17925;SDS011;9088;55.674;13.354;2023-08-06T10:50:07;1.30;;;1.30;;
17925;SDS011;9088;55.674;13.354;2023-08-06T10:52:34;1.30;;;1.30;;
17925;SDS011;9088;55.674;13.354;2023-08-06T10:55:01;0.70;;;0.70;;
17925;SDS011;9088;55.674;13.354;2023-08-06T10:57:29;0.60;;;0.60;;
17925;SDS011;9088;55.674;13.354;2023-08-06T10:59:56;0.53;;;0.53;;
17925;SDS011;9088;55.674;13.354;2023-08-06T11:02:23;0.50;;;0.50;;
17925;SDS011;9088;55.674;13.354;2023-08-06T11:04:50;0.60;;;0.60;;
17925;SDS011;9088;55.674;13.354;2023-08-06T11:07:18;0.60;;;0.60;;
17925;SDS011;9088;55.674;13.354;2023-08-06T11:09:49;0.50;;;0.50;;
17925;SDS011;9088;55.674;13.354;2023-08-06T11:12:18;0.50;;;0.50;;
17925;SDS011;9088;55.674;13.354;2023-08-06T11:14:49;0.50;;;0.50;;
17925;SDS011;9088;55.674;13.354;2023-08-06T11:17:16;0.60;;;0.60;;
17925;SDS011;9088;55.674;13.354;2023-08-06T11:19:44;0.50;;;0.50;;
17925;SDS011;9088;55.674;13.354;2023-08-06T11:22:11;0.50;;;0.50;;
17925;SDS011;9088;55.674;13.354;2023-08-06T11:24:39;0.50;;;0.50;;
17925;SDS011;9088;55.674;13.354;2023-08-06T11:27:11;0.40;;;0.40;;
17925;SDS011;9088;55.674;13.354;2023-08-06T11:29:38;0.40;;;0.40;;
17925;SDS011;9088;55.674;13.354;2023-08-06T11:32:05;0.50;;;0.50;;
17925;SDS011;9088;55.674;13.354;2023-08-06T11:34:32;0.50;;;0.50;;
17925;SDS011;9088;55.674;13.354;2023-08-06T11:36:59;0.50;;;0.50;;
17925;SDS011;9088;55.674;13.354;2023-08-06T11:39:26;0.50;;;0.50;;
17925;SDS011;9088;55.674;13.354;2023-08-06T11:41:55;0.50;;;0.50;;
17925;SDS011;9088;55.674;13.354;2023-08-06T11:44:22;0.50;;;0.50;;
17925;SDS011;9088;55.674;13.354;2023-08-06T11:46:50;0.50;;;0.50;;
17925;SDS011;9088;55.674;13.354;2023-08-06T11:49:18;0.50;;;0.50;;
17925;SDS011;9088;55.674;13.354;2023-08-06T11:51:47;0.40;;;0.40;;
17925;SDS011;9088;55.674;13.354;2023-08-06T11:54:14;0.40;;;0.40;;
17925;SDS011;9088;55.674;13.354;2023-08-06T11:56:41;0.43;;;0.43;;
17925;SDS011;9088;55.674;13.354;2023-08-06T11:59:10;0.33;;;0.33;;
17925;SDS011;9088;55.674;13.354;2023-08-06T12:01:38;0.40;;;0.40;;
17925;SDS011;9088;55.674;13.354;2023-08-06T12:04:05;0.40;;;0.40;;
17925;SDS011;9088;55.674;13.354;2023-08-06T12:06:41;0.40;;;0.40;;
17925;SDS011;9088;55.674;13.354;2023-08-06T12:09:08;0.50;;;0.50;;
17925;SDS011;9088;55.674;13.354;2023-08-06T12:11:36;0.40;;;0.40;;
17925;SDS011;9088;55.674;13.354;2023-08-06T12:14:03;0.47;;;0.47;;
17925;SDS011;9088;55.674;13.354;2023-08-06T12:16:31;0.40;;;0.40;;
17925;SDS011;9088;55.674;13.354;2023-08-06T12:18:58;0.50;;;0.50;;
17925;SDS011;9088;55.674;13.354;2023-08-06T12:21:25;0.60;;;0.60;;
17925;SDS011;9088;55.674;13.354;2023-08-06T12:23:52;0.40;;;0.40;;
17925;SDS011;9088;55.674;13.354;2023-08-06T12:26:19;0.40;;;0.40;;
17925;SDS011;9088;55.674;13.354;2023-08-06T12:28:46;0.47;;;0.47;;
17925;SDS011;9088;55.674;13.354;2023-08-06T12:31:14;0.50;;;0.50;;
17925;SDS011;9088;55.674;13.354;2023-08-06T12:33:43;0.50;;;0.50;;
17925;SDS011;9088;55.674;13.354;2023-08-06T12:36:10;0.40;;;0.40;;
17925;SDS011;9088;55.674;13.354;2023-08-06T12:38:37;0.40;;;0.40;;
17925;SDS011;9088;55.674;13.354;2023-08-06T12:41:04;1.00;;;1.00;;
17925;SDS011;9088;55.674;13.354;2023-08-06T12:43:31;1.00;;;1.00;;
17925;SDS011;9088;55.674;13.354;2023-08-06T12:45:58;1.10;;;1.10;;
17925;SDS011;9088;55.674;13.354;2023-08-06T12:48:25;1.00;;;1.00;;
17925;SDS011;9088;55.674;13.354;2023-08-06T12:50:53;1.13;;;1.13;;
17925;SDS011;9088;55.674;13.354;2023-08-06T12:53:20;1.20;;;1.20;;
17925;SDS011;9088;55.674;13.354;2023-08-06T12:55:48;1.30;;;1.30;;
17925;SDS011;9088;55.674;13.354;2023-08-06T12:58:15;1.13;;;1.13;;
17925;SDS011;9088;55.674;13.354;2023-08-06T13:00:42;1.17;;;1.17;;
17925;SDS011;9088;55.674;13.354;2023-08-06T13:03:09;1.10;;;1.10;;
17925;SDS011;9088;55.674;13.354;2023-08-06T13:05:36;0.90;;;0.90;;
17925;SDS011;9088;55.674;13.354;2023-08-06T13:08:05;1.00;;;1.00;;
17925;SDS011;9088;55.674;13.354;2023-08-06T13:10:32;1.10;;;1.10;;
17925;SDS011;9088;55.674;13.354;2023-08-06T13:12:59;1.10;;;1.10;;
17925;SDS011;9088;55.674;13.354;2023-08-06T13:15:26;0.40;;;0.40;;
17925;SDS011;9088;55.674;13.354;2023-08-06T13:17:53;0.30;;;0.30;;
17925;SDS011;9088;55.674;13.354;2023-08-06T13:20:20;0.40;;;0.40;;
17925;SDS011;9088;55.674;13.354;2023-08-06T13:22:47;0.40;;;0.40;;
17925;SDS011;9088;55.674;13.354;2023-08-06T13:25:19;0.40;;;0.40;;
17925;SDS011;9088;55.674;13.354;2023-08-06T13:27:46;0.40;;;0.40;;
17925;SDS011;9088;55.674;13.354;2023-08-06T13:30:13;0.40;;;0.40;;
17925;SDS011;9088;55.674;13.354;2023-08-06T13:32:41;0.40;;;0.40;;
17925;SDS011;9088;55.674;13.354;2023-08-06T13:35:08;0.40;;;0.40;;
17925;SDS011;9088;55.674;13.354;2023-08-06T13:37:35;0.40;;;0.40;;
17925;SDS011;9088;55.674;13.354;2023-08-06T13:40:02;0.40;;;0.40;;
17925;SDS011;9088;55.674;13.354;2023-08-06T13:42:31;0.40;;;0.40;;
17925;SDS011;9088;55.674;13.354;2023-08-06T13:44:58;0.40;;;0.40;;
17925;SDS011;9088;55.674;13.354;2023-08-06T13:47:28;0.40;;;0.40;;
17925;SDS011;9088;55.674;13.354;2023-08-06T13:49:55;0.40;;;0.40;;
17925;SDS011;9088;55.674;13.354;2023-08-06T13:52:22;0.40;;;0.40;;
17925;SDS011;9088;55.674;13.354;2023-08-06T13:54:49;0.30;;;0.30;;
17925;SDS011;9088;55.674;13.354;2023-08-06T13:57:16;0.40;;;0.40;;
17925;SDS011;9088;55.674;13.354;2023-08-06T13:59:45;0.40;;;0.40;;
17925;SDS011;9088;55.674;13.354;2023-08-06T14:02:12;0.40;;;0.40;;
17925;SDS011;9088;55.674;13.354;2023-08-06T14:04:39;0.40;;;0.40;;
17925;SDS011;9088;55.674;13.354;2023-08-06T14:07:06;0.40;;;0.40;;
17925;SDS011;9088;55.674;13.354;2023-08-06T14:09:33;0.40;;;0.40;;
17925;SDS011;9088;55.674;13.354;2023-08-06T14:12:00;0.40;;;0.40;;
17925;SDS011;9088;55.674;13.354;2023-08-06T14:14:28;0.40;;;0.40;;
17925;SDS011;9088;55.674;13.354;2023-08-06T14:16:56;0.40;;;0.40;;
17925;SDS011;9088;55.674;13.354;2023-08-06T14:19:23;0.37;;;0.37;;
17925;SDS011;9088;55.674;13.354;2023-08-06T14:21:50;0.40;;;0.40;;
17925;SDS011;9088;55.674;13.354;2023-08-06T14:24:17;0.40;;;0.40;;
17925;SDS011;9088;55.674;13.354;2023-08-06T14:26:44;0.40;;;0.40;;
17925;SDS011;9088;55.674;13.354;2023-08-06T14:29:11;0.40;;;0.40;;
17925;SDS011;9088;55.674;13.354;2023-08-06T14:31:39;0.40;;;0.40;;
17925;SDS011;9088;55.674;13.354;2023-08-06T14:34:07;0.40;;;0.40;;
17925;SDS011;9088;55.674;13.354;2023-08-06T14:36:34;0.40;;;0.40;;
17925;SDS011;9088;55.674;13.354;2023-08-06T14:39:01;0.40;;;0.40;;
17925;SDS011;9088;55.674;13.354;2023-08-06T14:41:28;0.40;;;0.40;;
17925;SDS011;9088;55.674;13.354;2023-08-06T14:43:55;0.40;;;0.40;;
17925;SDS011;9088;55.674;13.354;2023-08-06T14:46:22;0.40;;;0.40;;
17925;SDS011;9088;55.674;13.354;2023-08-06T14:48:49;0.40;;;0.40;;
17925;SDS011;9088;55.674;13.354;2023-08-06T14:51:18;0.40;;;0.40;;
17925;SDS011;9088;55.674;13.354;2023-08-06T14:53:45;0.40;;;0.40;;